Time;durP1;ratioP1;P1;durP2;ratioP2;P2;SDS_P1;SDS_P2;PMS_P1;PMS_P2;Temp;Humidity;BMP_temperature;BMP_pressure;BME280_temperature;BME280_humidity;BME280_pressure;Samples;Min_cycle;Max_cycle;Signal;HPM_P1;HPM_P2
2021/03/10 00:00:45;;;;;;;26.00;13.97;;;0.30;53.00;;;;;;4947815;28;20229;-72
2021/03/10 00:03:11;;;;;;;27.77;14.27;;;0.30;53.10;;;;;;4955303;28;20210;-73
2021/03/10 00:05:38;;;;;;;24.23;13.10;;;0.30;53.20;;;;;;4950683;28;20245;-72
2021/03/10 00:08:06;;;;;;;23.67;12.83;;;0.30;53.30;;;;;;4954772;29;20549;-73
2021/03/10 00:10:32;;;;;;;26.03;13.73;;;0.30;53.30;;;;;;4954443;28;20328;-73
2021/03/10 00:12:59;;;;;;;24.43;13.73;;;0.30;53.40;;;;;;4950037;28;20273;-73
2021/03/10 00:15:26;;;;;;;21.97;12.67;;;0.20;53.50;;;;;;4954759;28;20559;-72
2021/03/10 00:17:52;;;;;;;23.00;12.83;;;0.20;53.60;;;;;;4949360;28;20229;-72
2021/03/10 00:20:19;;;;;;;27.07;12.73;;;0.20;53.80;;;;;;4958302;28;20206;-71
2021/03/10 00:22:45;;;;;;;27.30;13.27;;;0.10;53.90;;;;;;4955754;28;20288;-73
2021/03/10 00:25:12;;;;;;;21.07;12.47;;;0.10;54.00;;;;;;4950577;28;20213;-72
2021/03/10 00:27:39;;;;;;;25.20;12.87;;;0.10;54.10;;;;;;4949073;28;20263;-72
2021/03/10 00:30:09;;;;;;;28.13;12.60;;;0.10;54.20;;;;;;4952557;28;20206;-73
2021/03/10 00:32:37;;;;;;;25.93;12.67;;;0.00;54.30;;;;;;4954267;28;20214;-72
2021/03/10 00:35:04;;;;;;;24.17;12.23;;;0.00;54.60;;;;;;4946622;28;20221;-72
2021/03/10 00:37:31;;;;;;;24.30;12.70;;;0.00;54.80;;;;;;4945998;28;20233;-72
2021/03/10 00:39:57;;;;;;;30.73;13.70;;;0.00;55.50;;;;;;4953064;28;20240;-72
2021/03/10 00:42:24;;;;;;;23.97;12.93;;;-0.10;55.10;;;;;;4943517;28;20277;-72
2021/03/10 00:44:50;;;;;;;23.80;12.80;;;-0.10;55.20;;;;;;4952039;28;20212;-73
2021/03/10 00:47:17;;;;;;;24.47;12.93;;;-0.10;55.50;;;;;;4950224;29;20677;-73
2021/03/10 00:49:44;;;;;;;22.07;13.10;;;-0.10;55.60;;;;;;4953546;28;20753;-73
2021/03/10 00:52:11;;;;;;;22.30;12.23;;;0.00;55.80;;;;;;4953852;28;20205;-74
2021/03/10 00:54:39;;;;;;;25.23;12.80;;;-0.10;55.90;;;;;;4948893;28;20320;-73
2021/03/10 00:57:06;;;;;;;22.10;12.73;;;-0.10;56.00;;;;;;4948131;29;20210;-73
2021/03/10 00:59:32;;;;;;;21.50;12.17;;;-0.10;56.10;;;;;;4945758;28;20669;-74
2021/03/10 01:01:59;;;;;;;25.37;13.30;;;-0.10;56.50;;;;;;4952471;28;20220;-73
2021/03/10 01:04:26;;;;;;;24.63;12.77;;;-0.10;56.50;;;;;;4953024;28;20198;-72
2021/03/10 01:06:53;;;;;;;27.97;13.30;;;-0.10;56.80;;;;;;4949031;29;20348;-72
2021/03/10 01:09:19;;;;;;;27.80;13.40;;;-0.20;56.90;;;;;;4954689;28;20248;-72
2021/03/10 01:11:46;;;;;;;22.13;13.07;;;-0.20;57.10;;;;;;4951691;28;20209;-73
2021/03/10 01:14:13;;;;;;;31.47;13.87;;;-0.10;57.50;;;;;;4953203;28;20239;-72
2021/03/10 01:16:39;;;;;;;28.20;13.77;;;-0.10;57.70;;;;;;4951967;28;20673;-72
2021/03/10 01:19:06;;;;;;;29.57;15.00;;;-0.10;57.90;;;;;;4951749;28;20327;-72
2021/03/10 01:21:32;;;;;;;24.57;13.93;;;-0.20;58.10;;;;;;4954373;28;20251;-72
2021/03/10 01:24:00;;;;;;;28.63;14.60;;;-0.20;58.40;;;;;;4951112;28;20676;-74
2021/03/10 01:26:26;;;;;;;24.23;13.50;;;-0.20;58.70;;;;;;4955628;28;20297;-73
2021/03/10 01:28:52;;;;;;;28.60;14.57;;;-0.20;59.10;;;;;;4951517;28;20297;-73
2021/03/10 01:31:19;;;;;;;25.70;13.23;;;-0.30;59.20;;;;;;4956630;28;20201;-72
2021/03/10 01:33:45;;;;;;;25.37;13.63;;;-0.30;59.70;;;;;;4953818;28;20301;-73
2021/03/10 01:36:12;;;;;;;27.90;14.90;;;-0.30;60.00;;;;;;4951668;29;20228;-72
2021/03/10 01:38:38;;;;;;;27.43;14.63;;;-0.30;60.50;;;;;;4949249;28;20210;-73
2021/03/10 01:41:05;;;;;;;27.40;15.43;;;-0.40;60.80;;;;;;4952674;28;20211;-73
2021/03/10 01:43:32;;;;;;;26.50;14.47;;;-0.40;61.50;;;;;;4952138;28;20221;-70
2021/03/10 01:45:59;;;;;;;27.83;14.37;;;-0.50;62.10;;;;;;4952897;28;20205;-72
2021/03/10 01:48:25;;;;;;;31.97;15.77;;;-0.50;62.80;;;;;;4949211;28;20671;-72
2021/03/10 01:50:52;;;;;;;32.50;16.27;;;-0.40;64.10;;;;;;4954319;28;20232;-73
2021/03/10 01:53:19;;;;;;;26.67;14.90;;;-0.50;63.80;;;;;;4950472;28;20236;-72
2021/03/10 01:55:47;;;;;;;25.47;14.30;;;-0.50;64.10;;;;;;4954863;28;20602;-72
2021/03/10 01:58:15;;;;;;;32.10;15.87;;;-0.50;64.60;;;;;;4950193;28;20224;-73
2021/03/10 02:00:41;;;;;;;28.37;14.50;;;-0.40;65.10;;;;;;4946863;28;20209;-73
2021/03/10 02:03:08;;;;;;;31.07;14.97;;;-0.40;65.60;;;;;;4947142;28;20245;-73
2021/03/10 02:05:34;;;;;;;27.27;15.20;;;-0.40;65.60;;;;;;4950248;28;20213;-73
2021/03/10 02:08:15;;;;;;;31.63;15.57;;;-0.40;65.60;;;;;;4952754;28;20212;-72
2021/03/10 02:10:54;;;;;;;27.43;15.57;;;-0.40;65.90;;;;;;4949126;28;20259;-72
2021/03/10 02:13:31;;;;;;;32.97;15.83;;;-0.30;66.50;;;;;;4947755;28;20236;-73
2021/03/10 02:16:07;;;;;;;28.73;15.33;;;-0.30;66.50;;;;;;4955386;28;20205;-74
2021/03/10 02:18:41;;;;;;;31.67;15.33;;;-0.30;66.50;;;;;;4948794;28;20605;-73
2021/03/10 02:21:19;;;;;;;29.73;16.23;;;-0.30;66.80;;;;;;4947731;28;20666;-72
2021/03/10 02:23:55;;;;;;;31.37;16.67;;;-0.30;67.10;;;;;;4953493;28;20293;-73
2021/03/10 02:26:32;;;;;;;33.60;16.73;;;-0.40;67.40;;;;;;4948862;29;20259;-74
2021/03/10 02:29:03;;;;;;;30.30;15.90;;;-0.40;68.10;;;;;;4950279;29;20197;-72
2021/03/10 02:31:32;;;;;;;30.23;15.67;;;-0.40;68.70;;;;;;4954342;28;20208;-73
2021/03/10 02:34:01;;;;;;;30.93;15.30;;;-0.40;69.20;;;;;;4946029;28;20315;-72
2021/03/10 02:36:30;;;;;;;29.33;15.80;;;-0.50;69.50;;;;;;4950609;28;20229;-72
2021/03/10 02:38:59;;;;;;;31.27;16.00;;;-0.30;70.20;;;;;;4953462;28;20201;-72
2021/03/10 02:41:29;;;;;;;35.40;16.47;;;-0.40;70.40;;;;;;4952517;28;20600;-73
2021/03/10 02:43:56;;;;;;;32.40;16.53;;;-0.40;70.60;;;;;;4953035;28;20564;-72
2021/03/10 02:46:24;;;;;;;36.33;16.73;;;-0.40;70.60;;;;;;4949564;28;20600;-71
2021/03/10 02:48:51;;;;;;;35.47;16.50;;;-0.40;71.10;;;;;;4947205;28;20209;-72
2021/03/10 02:51:18;;;;;;;32.60;16.37;;;-0.50;71.40;;;;;;4946147;28;20225;-72
2021/03/10 02:53:46;;;;;;;31.27;16.97;;;-0.40;72.10;;;;;;4951733;28;20695;-73
2021/03/10 02:56:13;;;;;;;34.33;16.10;;;-0.50;72.20;;;;;;4946247;28;20213;-72
2021/03/10 02:58:40;;;;;;;30.43;16.67;;;-0.50;72.60;;;;;;4949198;28;20301;-73
2021/03/10 03:01:07;;;;;;;28.43;16.40;;;-0.50;73.10;;;;;;4947685;28;20209;-72
2021/03/10 03:03:34;;;;;;;30.87;16.07;;;-0.50;73.50;;;;;;4949730;28;20626;-72
2021/03/10 03:06:01;;;;;;;36.27;17.47;;;-0.50;73.90;;;;;;4948802;28;20232;-72
2021/03/10 03:08:27;;;;;;;31.87;17.00;;;-0.40;74.10;;;;;;4949258;28;20295;-72
2021/03/10 03:10:55;;;;;;;29.17;16.17;;;-0.50;74.10;;;;;;4947730;29;20214;-72
2021/03/10 03:13:23;;;;;;;34.50;15.63;;;-0.50;74.30;;;;;;4954188;28;20229;-71
2021/03/10 03:15:53;;;;;;;35.10;17.50;;;-0.50;75.70;;;;;;4948398;29;20269;-73
2021/03/10 03:18:20;;;;;;;34.43;16.63;;;-0.40;75.10;;;;;;4954389;28;20271;-72
2021/03/10 03:20:48;;;;;;;35.40;17.83;;;-0.40;75.20;;;;;;4951898;28;20667;-73
2021/03/10 03:23:17;;;;;;;36.37;17.93;;;-0.50;75.20;;;;;;4952454;28;20240;-72
2021/03/10 03:25:44;;;;;;;34.10;17.17;;;-0.40;75.50;;;;;;4953118;28;20213;-72
2021/03/10 03:28:14;;;;;;;32.53;17.30;;;-0.40;75.70;;;;;;4952036;28;20209;-72
2021/03/10 03:30:41;;;;;;;30.43;17.13;;;-0.40;75.70;;;;;;4946070;28;20582;-72
2021/03/10 03:33:10;;;;;;;34.07;17.20;;;-0.40;76.00;;;;;;4947756;28;20285;-72
2021/03/10 03:35:37;;;;;;;32.20;16.40;;;-0.50;76.50;;;;;;4953715;28;20213;-73
2021/03/10 03:38:06;;;;;;;36.47;19.07;;;-0.50;76.90;;;;;;4951999;28;20585;-72
2021/03/10 03:40:33;;;;;;;36.63;17.30;;;-0.60;77.40;;;;;;4953026;28;20300;-72
2021/03/10 03:43:00;;;;;;;34.07;17.77;;;-0.50;77.90;;;;;;4951917;28;20229;-73
2021/03/10 03:45:27;;;;;;;35.63;17.17;;;-0.60;79.20;;;;;;4954568;28;20302;-73
2021/03/10 03:47:54;;;;;;;33.00;17.43;;;-0.60;78.80;;;;;;4951835;28;20662;-73
2021/03/10 03:50:22;;;;;;;32.20;17.00;;;-0.50;79.40;;;;;;4951248;28;20733;-72
2021/03/10 03:52:48;;;;;;;34.03;17.10;;;-0.60;79.60;;;;;;4946915;28;20244;-73
2021/03/10 03:55:16;;;;;;;32.63;17.33;;;-0.60;80.10;;;;;;4948744;28;20764;-73
2021/03/10 03:57:43;;;;;;;32.53;16.77;;;-0.60;80.40;;;;;;4949211;28;20217;-72
2021/03/10 04:00:11;;;;;;;33.03;16.80;;;-0.60;80.50;;;;;;4951354;28;20217;-72
2021/03/10 04:02:38;;;;;;;30.87;17.23;;;-0.60;80.90;;;;;;4951879;28;20204;-72
2021/03/10 04:05:05;;;;;;;32.57;17.47;;;-0.60;81.20;;;;;;4945689;28;20641;-72
2021/03/10 04:07:32;;;;;;;29.77;17.00;;;-0.60;81.50;;;;;;4947002;28;20274;-72
2021/03/10 04:09:58;;;;;;;33.00;17.50;;;-0.60;82.10;;;;;;4946096;28;20577;-73
2021/03/10 04:12:25;;;;;;;35.07;16.53;;;-0.60;82.50;;;;;;4949726;28;20217;-73
2021/03/10 04:14:52;;;;;;;32.90;17.03;;;-0.60;82.70;;;;;;4950898;28;20237;-72
2021/03/10 04:17:18;;;;;;;31.43;17.97;;;-0.60;82.80;;;;;;4951040;29;20257;-73
2021/03/10 04:19:45;;;;;;;37.73;17.70;;;-0.60;82.80;;;;;;4952395;28;20316;-72
2021/03/10 04:22:11;;;;;;;33.50;16.33;;;-0.60;83.10;;;;;;4954180;28;20673;-72
2021/03/10 04:24:37;;;;;;;39.30;17.80;;;-0.60;83.50;;;;;;4953077;28;20209;-72
2021/03/10 04:27:04;;;;;;;33.77;17.90;;;-0.70;83.50;;;;;;4951621;28;20214;-70
2021/03/10 04:29:32;;;;;;;34.57;18.03;;;-0.70;84.10;;;;;;4956727;28;20272;-73
2021/03/10 04:31:58;;;;;;;40.13;18.23;;;-0.70;84.30;;;;;;4953985;28;20730;-72
2021/03/10 04:34:24;;;;;;;36.67;17.87;;;-0.60;84.50;;;;;;4951915;28;20324;-71
2021/03/10 04:36:50;;;;;;;32.70;16.13;;;-0.60;85.00;;;;;;4951453;29;20216;-73
2021/03/10 04:39:17;;;;;;;36.73;17.90;;;-0.70;85.20;;;;;;4956610;28;21746;-72
2021/03/10 04:41:43;;;;;;;31.73;17.17;;;-0.70;85.20;;;;;;4955057;28;20313;-73
2021/03/10 04:44:10;;;;;;;31.50;16.53;;;-0.70;86.00;;;;;;4956130;28;20264;-72
2021/03/10 04:46:37;;;;;;;34.53;17.63;;;-0.70;86.50;;;;;;4952895;28;20224;-71
2021/03/10 04:49:08;;;;;;;37.90;18.30;;;-0.80;86.70;;;;;;4948166;28;20220;-72
2021/03/10 04:51:34;;;;;;;33.90;17.57;;;-0.80;87.20;;;;;;4949785;29;20676;-72
2021/03/10 04:54:00;;;;;;;32.83;16.77;;;-0.80;87.80;;;;;;4951893;28;20313;-74
2021/03/10 04:56:27;;;;;;;35.37;17.80;;;-0.80;88.40;;;;;;4946826;28;20581;-73
2021/03/10 04:58:53;;;;;;;36.53;18.77;;;-0.90;88.90;;;;;;4959139;28;20213;-72
2021/03/10 05:01:20;;;;;;;34.10;18.37;;;-0.80;89.30;;;;;;4948623;28;20213;-73
2021/03/10 05:03:47;;;;;;;34.00;18.63;;;-0.80;89.80;;;;;;4954621;28;20288;-72
2021/03/10 05:06:13;;;;;;;36.10;17.87;;;-0.80;90.10;;;;;;4951826;28;20715;-72
2021/03/10 05:08:39;;;;;;;38.07;18.10;;;-0.80;90.20;;;;;;4946235;28;20753;-73
2021/03/10 05:11:06;;;;;;;32.60;16.87;;;-0.80;90.30;;;;;;4954525;28;20686;-74
2021/03/10 05:13:32;;;;;;;37.30;18.17;;;-0.80;90.60;;;;;;4948743;28;20238;-72
2021/03/10 05:15:58;;;;;;;31.80;17.30;;;-0.80;90.60;;;;;;4956519;28;20729;-72
2021/03/10 05:18:25;;;;;;;38.63;19.23;;;-0.80;90.80;;;;;;4949874;28;20324;-72
2021/03/10 05:20:52;;;;;;;37.63;17.93;;;-0.80;91.10;;;;;;4948955;29;20221;-72
2021/03/10 05:23:19;;;;;;;38.60;18.70;;;-0.70;91.00;;;;;;4952925;28;20643;-74
2021/03/10 05:25:45;;;;;;;34.27;17.63;;;-0.70;91.00;;;;;;4953424;28;20305;-73
2021/03/10 05:28:11;;;;;;;40.23;18.13;;;-0.60;91.20;;;;;;4954495;28;20244;-72
2021/03/10 05:30:38;;;;;;;31.63;17.87;;;-0.60;90.80;;;;;;4952914;28;20264;-73
2021/03/10 05:33:05;;;;;;;38.93;18.33;;;-0.60;90.70;;;;;;4949695;28;20209;-73
2021/03/10 05:35:31;;;;;;;38.37;18.37;;;-0.50;90.50;;;;;;4950385;28;20209;-73
2021/03/10 05:37:59;;;;;;;35.30;17.33;;;-0.40;90.30;;;;;;4952358;28;20265;-72
2021/03/10 05:40:27;;;;;;;34.47;18.07;;;-0.30;90.10;;;;;;4950024;28;20252;-72
2021/03/10 05:42:54;;;;;;;31.50;17.17;;;-0.30;89.70;;;;;;4950245;28;20248;-73
2021/03/10 05:45:20;;;;;;;37.87;17.60;;;-0.20;89.90;;;;;;4951032;28;20205;-73
2021/03/10 05:47:46;;;;;;;37.00;18.77;;;-0.10;89.20;;;;;;4950135;28;20210;-73
2021/03/10 05:50:15;;;;;;;38.97;17.40;;;0.00;88.70;;;;;;4949931;28;20209;-74
2021/03/10 05:52:44;;;;;;;31.90;17.33;;;0.10;88.30;;;;;;4950010;28;20214;-73
2021/03/10 05:55:13;;;;;;;31.77;17.43;;;0.10;87.10;;;;;;4953805;28;20241;-71
2021/03/10 05:57:40;;;;;;;36.03;16.80;;;0.30;86.50;;;;;;4948109;28;20210;-74
2021/03/10 06:00:09;;;;;;;35.27;16.60;;;0.40;86.20;;;;;;4945042;28;20819;-74
2021/03/10 06:02:36;;;;;;;33.40;16.57;;;0.50;85.70;;;;;;4950511;29;20214;-72
2021/03/10 06:05:03;;;;;;;31.87;16.57;;;0.60;84.20;;;;;;4948502;28;20756;-72
2021/03/10 06:07:30;;;;;;;34.70;15.40;;;0.70;83.40;;;;;;4948895;28;20632;-73
2021/03/10 06:10:01;;;;;;;30.67;16.63;;;0.90;81.90;;;;;;4955547;28;20321;-74
2021/03/10 06:12:42;;;;;;;32.50;15.90;;;1.10;81.60;;;;;;4946868;28;20655;-74
2021/03/10 06:15:10;;;;;;;27.70;14.67;;;1.20;79.20;;;;;;4948600;28;20230;-74
2021/03/10 06:17:45;;;;;;;35.10;15.70;;;1.40;78.10;;;;;;4940325;28;20220;-73
2021/03/10 06:20:23;;;;;;;25.73;14.50;;;1.90;76.80;;;;;;4952666;28;20245;-72
2021/03/10 06:22:49;;;;;;;27.50;14.90;;;2.10;73.10;;;;;;4948976;28;20197;-74
2021/03/10 06:25:16;;;;;;;31.07;15.63;;;2.10;70.90;;;;;;4948665;28;20630;-76
2021/03/10 06:27:52;;;;;;;28.50;16.43;;;2.10;70.30;;;;;;4945693;28;20213;-73
2021/03/10 06:30:31;;;;;;;29.03;14.23;;;2.00;70.10;;;;;;4950645;28;20233;-73
2021/03/10 06:32:58;;;;;;;27.57;15.43;;;1.90;68.90;;;;;;4949113;28;20207;-74
2021/03/10 06:35:25;;;;;;;27.77;15.03;;;1.90;67.90;;;;;;4949285;28;20261;-72
2021/03/10 06:37:52;;;;;;;28.53;15.13;;;2.00;68.00;;;;;;4948688;28;20214;-72
2021/03/10 06:40:19;;;;;;;37.47;16.07;;;2.00;67.90;;;;;;4955479;28;20256;-74
2021/03/10 06:42:55;;;;;;;26.27;15.43;;;2.00;67.50;;;;;;4949450;28;20651;-73
2021/03/10 06:45:32;;;;;;;32.33;15.87;;;2.00;66.80;;;;;;4951202;28;20205;-75
2021/03/10 06:47:59;;;;;;;35.37;17.13;;;2.00;66.80;;;;;;4948291;28;20343;-72
2021/03/10 06:50:43;;;;;;;28.47;16.77;;;2.00;67.00;;;;;;4948697;29;20544;-71
2021/03/10 06:53:10;;;;;;;34.93;17.03;;;2.00;66.60;;;;;;4951883;28;20638;-72
2021/03/10 06:55:43;;;;;;;33.57;16.40;;;2.10;67.10;;;;;;4949238;29;20231;-73
2021/03/10 06:58:13;;;;;;;32.00;16.30;;;2.10;66.70;;;;;;4951629;28;20232;-71
2021/03/10 07:00:39;;;;;;;34.23;15.67;;;2.10;66.50;;;;;;4945969;28;20238;-72
2021/03/10 07:03:06;;;;;;;29.67;16.23;;;2.10;66.20;;;;;;4951294;28;20213;-73
2021/03/10 07:05:32;;;;;;;33.80;17.87;;;2.10;65.70;;;;;;4952253;28;20572;-71
2021/03/10 07:08:01;;;;;;;34.80;16.10;;;2.10;65.60;;;;;;4951184;28;20206;-71
2021/03/10 07:10:28;;;;;;;34.30;17.07;;;2.20;66.40;;;;;;4950946;28;20206;-73
2021/03/10 07:12:58;;;;;;;34.37;16.43;;;2.30;66.40;;;;;;4948063;28;20300;-75
2021/03/10 07:15:26;;;;;;;32.50;18.93;;;2.40;66.10;;;;;;4949811;28;20283;-72
2021/03/10 07:17:52;;;;;;;37.27;17.03;;;2.50;65.50;;;;;;4948773;28;20717;-73
2021/03/10 07:20:20;;;;;;;36.23;17.33;;;2.60;65.40;;;;;;4949653;28;20653;-75
2021/03/10 07:22:55;;;;;;;29.40;16.73;;;2.60;64.90;;;;;;4945978;28;20288;-71
2021/03/10 07:25:26;;;;;;;36.60;17.20;;;2.60;64.40;;;;;;4948602;28;20202;-74
2021/03/10 07:27:57;;;;;;;36.83;17.37;;;2.70;64.30;;;;;;4949900;28;20205;-70
2021/03/10 07:30:34;;;;;;;37.53;17.03;;;2.80;63.90;;;;;;4944422;28;20596;-70
2021/03/10 07:33:09;;;;;;;34.97;16.73;;;2.80;64.00;;;;;;4945838;28;20579;-71
2021/03/10 07:35:50;;;;;;;29.97;16.30;;;2.80;63.20;;;;;;4949307;28;20220;-70
2021/03/10 07:38:16;;;;;;;33.57;16.87;;;2.90;63.20;;;;;;4944926;29;20210;-74
2021/03/10 07:40:58;;;;;;;32.33;18.33;;;3.00;63.20;;;;;;4947124;28;20232;-73
2021/03/10 07:43:40;;;;;;;29.47;15.13;;;3.30;63.20;;;;;;4947626;28;20220;-70
2021/03/10 07:46:26;;;;;;;31.27;14.47;;;3.60;61.70;;;;;;4950311;28;20671;-70
2021/03/10 07:48:53;;;;;;;26.63;14.33;;;3.70;60.70;;;;;;4951610;28;20723;-71
2021/03/10 07:51:31;;;;;;;30.20;15.00;;;3.90;60.10;;;;;;4950703;28;20499;-70
2021/03/10 07:53:59;;;;;;;19.27;12.20;;;4.20;59.70;;;;;;4950276;29;20557;-70
2021/03/10 07:56:30;;;;;;;25.97;15.33;;;4.40;58.30;;;;;;4951151;29;20217;-68
2021/03/10 07:59:09;;;;;;;27.83;14.00;;;4.50;57.00;;;;;;4954004;28;20213;-71
2021/03/10 08:01:37;;;;;;;26.90;13.07;;;4.70;56.30;;;;;;4952023;28;20788;-70
2021/03/10 08:04:14;;;;;;;23.13;12.67;;;4.80;55.10;;;;;;4949701;28;20301;-74
2021/03/10 08:06:49;;;;;;;29.07;13.80;;;5.00;54.80;;;;;;4947461;28;20217;-70
2021/03/10 08:09:17;;;;;;;26.13;13.00;;;5.10;54.10;;;;;;4950433;28;20204;-69
2021/03/10 08:11:45;;;;;;;20.43;12.13;;;5.30;53.90;;;;;;4951111;28;20589;-72
2021/03/10 08:14:15;;;;;;;27.27;12.07;;;5.40;53.40;;;;;;4950029;28;20276;-74
2021/03/10 08:16:43;;;;;;;27.37;12.30;;;5.60;52.60;;;;;;4943381;28;20253;-73
2021/03/10 08:19:11;;;;;;;27.03;13.20;;;5.90;52.40;;;;;;4944532;28;20343;-74
2021/03/10 08:21:46;;;;;;;27.33;14.30;;;6.00;51.40;;;;;;4945395;28;20214;-73
2021/03/10 08:24:13;;;;;;;24.63;12.87;;;6.20;51.40;;;;;;4953281;28;20240;-73
2021/03/10 08:26:40;;;;;;;23.27;12.70;;;6.40;50.60;;;;;;4946850;28;20660;-73
2021/03/10 08:29:07;;;;;;;23.23;12.77;;;6.40;50.10;;;;;;4953403;28;20209;-72
2021/03/10 08:31:44;;;;;;;25.47;12.03;;;6.50;49.50;;;;;;4947682;28;20679;-73
2021/03/10 08:34:11;;;;;;;26.57;12.97;;;6.40;49.00;;;;;;4952542;29;20304;-74
2021/03/10 08:36:37;;;;;;;23.40;12.97;;;6.30;49.20;;;;;;4952031;29;20857;-72
2021/03/10 08:39:10;;;;;;;24.93;13.07;;;6.30;49.60;;;;;;4949476;28;20220;-73
2021/03/10 08:41:48;;;;;;;24.53;13.90;;;6.50;49.50;;;;;;4951422;28;20233;-76
2021/03/10 08:44:15;;;;;;;25.43;11.47;;;6.60;49.10;;;;;;4952885;29;20326;-74
2021/03/10 08:46:44;;;;;;;20.27;9.47;;;6.90;49.00;;;;;;4952302;28;20224;-75
2021/03/10 08:49:25;;;;;;;17.90;9.17;;;6.90;47.00;;;;;;4954164;28;20631;-74
2021/03/10 08:52:06;;;;;;;22.83;11.63;;;6.90;46.90;;;;;;4948398;29;20237;-75
2021/03/10 08:54:33;;;;;;;18.37;10.03;;;6.90;47.10;;;;;;4949936;29;20221;-73
2021/03/10 08:56:59;;;;;;;16.97;9.03;;;6.90;46.70;;;;;;4948874;28;20297;-74
2021/03/10 08:59:36;;;;;;;24.37;9.23;;;7.00;46.60;;;;;;4950244;28;20212;-73
2021/03/10 09:02:04;;;;;;;24.63;10.43;;;7.30;46.80;;;;;;4949053;29;20215;-74
2021/03/10 09:04:30;;;;;;;20.00;8.70;;;7.60;46.10;;;;;;4950852;28;20209;-74
2021/03/10 09:07:01;;;;;;;15.00;8.60;;;7.90;45.50;;;;;;4952170;29;20288;-75
2021/03/10 09:09:32;;;;;;;12.70;7.57;;;8.00;45.00;;;;;;4951011;28;20233;-74
2021/03/10 09:11:59;;;;;;;17.83;9.53;;;8.30;45.10;;;;;;4952322;28;20212;-75
2021/03/10 09:14:25;;;;;;;14.43;8.70;;;8.60;46.40;;;;;;4944999;28;20232;-76
2021/03/10 09:16:53;;;;;;;15.30;8.90;;;9.20;46.50;;;;;;4945268;28;20982;-76
2021/03/10 09:19:32;;;;;;;14.40;8.27;;;11.40;47.90;;;;;;4950639;28;20665;-74
2021/03/10 09:22:11;;;;;;;8.83;6.00;;;14.50;39.60;;;;;;4948394;29;20245;-75
2021/03/10 09:24:56;;;;;;;9.77;6.87;;;18.10;33.30;;;;;;4952467;28;20220;-74
2021/03/10 09:27:25;;;;;;;19.08;9.23;;;21.60;27.20;;;;;;4950785;28;20205;-74
2021/03/10 09:29:53;;;;;;;17.35;10.50;;;23.60;26.00;;;;;;4952386;28;20239;-73
2021/03/10 09:32:20;;;;;;;16.75;10.48;;;25.30;25.00;;;;;;4945101;28;20212;-72
2021/03/10 09:34:55;;;;;;;13.88;8.75;;;26.60;23.10;;;;;;4954441;28;20233;-74
2021/03/10 09:37:28;;;;;;;11.38;7.40;;;27.40;22.10;;;;;;4942556;29;20201;-73
2021/03/10 09:39:55;;;;;;;11.45;7.10;;;28.60;21.50;;;;;;4947019;29;20217;-74
2021/03/10 09:42:27;;;;;;;10.30;6.97;;;29.40;20.20;;;;;;4948804;28;20684;-73
2021/03/10 09:44:55;;;;;;;12.43;7.22;;;30.30;20.00;;;;;;4943677;29;20372;-74
2021/03/10 09:47:23;;;;;;;13.10;7.18;;;31.50;19.20;;;;;;4940970;29;20214;-74
2021/03/10 09:49:56;;;;;;;10.88;7.10;;;32.20;18.70;;;;;;4948685;28;20207;-74
2021/03/10 09:52:33;;;;;;;11.68;7.78;;;32.90;18.40;;;;;;4944603;29;20214;-72
2021/03/10 09:54:59;;;;;;;13.90;9.10;;;33.60;17.90;;;;;;4948314;29;20230;-74
2021/03/10 09:57:28;;;;;;;10.07;7.75;;;33.50;17.50;;;;;;4947188;28;20296;-72
2021/03/10 09:59:55;;;;;;;10.50;7.55;;;33.30;17.90;;;;;;4953729;28;20224;-72
2021/03/10 10:02:22;;;;;;;9.60;7.18;;;31.80;16.80;;;;;;4946716;29;20237;-73
2021/03/10 10:05:08;;;;;;;11.18;7.35;;;30.30;17.40;;;;;;4942847;29;20206;-72
2021/03/10 10:07:35;;;;;;;12.93;7.63;;;28.40;18.60;;;;;;4944569;29;20282;-74
2021/03/10 10:10:01;;;;;;;12.75;7.57;;;28.00;19.40;;;;;;4944230;29;20229;-73
2021/03/10 10:12:27;;;;;;;11.07;7.10;;;28.30;18.40;;;;;;4943428;28;20694;-72
2021/03/10 10:14:54;;;;;;;11.85;7.95;;;26.80;18.20;;;;;;4945007;28;20241;-73
2021/03/10 10:17:20;;;;;;;14.90;8.25;;;24.80;19.10;;;;;;4941175;29;20205;-72
2021/03/10 10:19:47;;;;;;;14.20;8.57;;;24.00;20.80;;;;;;4941524;28;20234;-73
2021/03/10 10:22:14;;;;;;;10.90;7.72;;;23.40;19.90;;;;;;4944842;29;20265;-74
2021/03/10 10:24:40;;;;;;;13.00;7.70;;;21.90;20.20;;;;;;4941061;28;20219;-73
2021/03/10 10:27:07;;;;;;;10.75;7.20;;;20.30;20.80;;;;;;4944022;28;20250;-73
2021/03/10 10:29:33;;;;;;;12.75;7.70;;;18.80;21.70;;;;;;4946689;28;20213;-73
2021/03/10 10:32:00;;;;;;;12.85;6.95;;;19.20;23.40;;;;;;4945396;28;20220;-72
2021/03/10 10:34:27;;;;;;;14.90;7.43;;;20.40;22.60;;;;;;4943000;29;20675;-73
2021/03/10 10:36:53;;;;;;;13.27;7.15;;;22.20;22.00;;;;;;4942364;28;20335;-74
2021/03/10 10:39:20;;;;;;;13.20;7.32;;;23.20;21.00;;;;;;4941041;28;20209;-75
2021/03/10 10:41:47;;;;;;;12.05;7.97;;;23.30;20.50;;;;;;4939884;28;20292;-75
2021/03/10 10:44:13;;;;;;;10.43;7.55;;;22.70;20.80;;;;;;4937353;29;20220;-74
2021/03/10 10:46:39;;;;;;;12.27;7.57;;;22.70;21.30;;;;;;4940138;28;20301;-73
2021/03/10 10:49:06;;;;;;;12.82;6.85;;;22.00;20.20;;;;;;4941246;28;20245;-73
2021/03/10 10:51:32;;;;;;;14.90;7.95;;;20.60;20.70;;;;;;4933919;29;20300;-74
2021/03/10 10:53:59;;;;;;;12.25;7.63;;;19.30;21.70;;;;;;4932223;29;20310;-74
2021/03/10 10:56:26;;;;;;;12.63;7.50;;;18.40;22.10;;;;;;4932234;29;20956;-74
2021/03/10 10:58:53;;;;;;;10.30;7.40;;;17.30;22.70;;;;;;4943321;28;20309;-74
2021/03/10 11:01:19;;;;;;;12.70;7.87;;;16.60;23.80;;;;;;4939389;29;20210;-73
2021/03/10 11:03:45;;;;;;;15.60;6.90;;;16.60;24.20;;;;;;4939245;29;20205;-74
2021/03/10 11:06:12;;;;;;;10.37;7.47;;;17.50;25.10;;;;;;4939136;29;20704;-73
2021/03/10 11:08:38;;;;;;;9.52;7.25;;;19.00;23.80;;;;;;4938030;28;20244;-73
2021/03/10 11:11:04;;;;;;;11.15;7.22;;;19.90;22.60;;;;;;4942575;29;20272;-75
2021/03/10 11:13:32;;;;;;;14.15;7.95;;;20.40;22.00;;;;;;4936984;28;20230;-74
2021/03/10 11:15:58;;;;;;;10.13;7.30;;;20.50;23.30;;;;;;4941160;28;20600;-74
2021/03/10 11:18:24;;;;;;;15.07;7.97;;;21.00;21.90;;;;;;4942107;28;20617;-74
2021/03/10 11:20:51;;;;;;;11.80;8.57;;;20.70;21.10;;;;;;4942202;28;20209;-72
2021/03/10 11:23:17;;;;;;;12.20;7.60;;;19.80;21.80;;;;;;4946614;29;20267;-73
2021/03/10 11:25:43;;;;;;;13.75;8.45;;;19.70;22.10;;;;;;4942928;29;20244;-72
2021/03/10 11:28:10;;;;;;;11.30;7.60;;;19.10;21.60;;;;;;4943310;28;20237;-73
2021/03/10 11:30:37;;;;;;;12.53;7.73;;;18.00;22.10;;;;;;4955066;28;20295;-74
2021/03/10 11:33:04;;;;;;;15.23;7.80;;;17.10;23.10;;;;;;4953535;28;20300;-75
2021/03/10 11:35:30;;;;;;;14.83;7.63;;;16.20;23.30;;;;;;4949207;29;20731;-70
2021/03/10 11:37:57;;;;;;;14.30;7.83;;;15.30;23.70;;;;;;4946045;29;20205;-70
2021/03/10 11:40:23;;;;;;;10.93;8.23;;;14.50;24.50;;;;;;4947464;28;20279;-72
2021/03/10 11:42:50;;;;;;;15.60;8.57;;;13.70;25.10;;;;;;4949209;29;20221;-71
2021/03/10 11:45:17;;;;;;;12.57;8.20;;;13.20;25.70;;;;;;4945929;28;20276;-74
2021/03/10 11:47:44;;;;;;;12.97;8.40;;;12.70;25.70;;;;;;4946016;29;20301;-72
2021/03/10 11:50:12;;;;;;;12.20;8.20;;;12.20;26.30;;;;;;4945000;29;20335;-70
2021/03/10 11:52:38;;;;;;;12.80;8.70;;;11.70;27.00;;;;;;4949788;29;20204;-72
2021/03/10 11:55:06;;;;;;;17.23;8.83;;;12.10;31.70;;;;;;4954889;28;20232;-71
2021/03/10 11:57:32;;;;;;;13.43;7.90;;;15.20;29.00;;;;;;4948504;28;20213;-72
2021/03/10 11:59:58;;;;;;;11.47;7.97;;;18.30;25.10;;;;;;4942683;28;20220;-71
2021/03/10 12:02:25;;;;;;;18.97;8.13;;;20.40;23.80;;;;;;4949848;29;20217;-71
2021/03/10 12:04:53;;;;;;;14.23;7.70;;;21.90;22.60;;;;;;4950489;28;20303;-74
2021/03/10 12:07:20;;;;;;;14.55;8.55;;;23.20;22.10;;;;;;4942394;28;20213;-72
2021/03/10 12:09:46;;;;;;;15.52;7.53;;;24.30;21.00;;;;;;4943504;28;20241;-73
2021/03/10 12:12:13;;;;;;;15.70;8.20;;;24.90;20.70;;;;;;4953130;28;20213;-73
2021/03/10 12:14:40;;;;;;;13.23;7.90;;;26.00;20.40;;;;;;4955377;28;20337;-74
2021/03/10 12:17:06;;;;;;;11.02;7.40;;;27.10;19.20;;;;;;4947166;28;20296;-70
2021/03/10 12:19:33;;;;;;;10.70;7.90;;;27.80;19.60;;;;;;4949293;28;20351;-71
2021/03/10 12:22:00;;;;;;;13.77;8.13;;;27.70;18.60;;;;;;4953147;28;20216;-70
2021/03/10 12:24:26;;;;;;;11.80;8.27;;;25.50;18.30;;;;;;4951947;29;20201;-72
2021/03/10 12:26:53;;;;;;;10.88;8.52;;;23.60;20.70;;;;;;4943278;28;20245;-71
2021/03/10 12:29:19;;;;;;;12.13;8.13;;;23.30;20.60;;;;;;4947328;29;20232;-73
2021/03/10 12:31:46;;;;;;;10.30;7.75;;;23.00;20.60;;;;;;4944959;28;20301;-71
2021/03/10 12:34:12;;;;;;;12.80;7.70;;;23.10;20.70;;;;;;4946132;28;20263;-71
2021/03/10 12:36:39;;;;;;;10.85;7.88;;;24.40;21.10;;;;;;4951216;28;20244;-71
2021/03/10 12:39:08;;;;;;;15.13;7.88;;;26.40;20.30;;;;;;4958177;28;20768;-72